Time,TemperatureF,DewpointF,PressureIn,WindDirection,WindDirectionDegrees,WindSpeedMPH,WindSpeedGustMPH,Humidity,HourlyPrecipIn,Conditions,Clouds,dailyrainin,SoftwareType,DateUTC
2013-12-04 00:00:00,47.6,41.7,29.90,North,352,20.0,27.0,80,0.00,,,0.00,Wunderground v.1.15,2013-12-04 08:00:00,
2013-12-04 00:10:00,47.8,41.9,29.90,NNW,342,23.0,23.0,80,0.00,,,0.00,Wunderground v.1.15,2013-12-04 08:10:00,
2013-12-04 00:15:00,47.7,41.8,29.90,NNW,338,22.0,27.0,80,0.00,,,0.00,Wunderground v.1.15,2013-12-04 08:15:00,
2013-12-04 00:20:00,47.8,41.6,29.91,NW,308,21.0,21.0,79,0.00,,,0.00,Wunderground v.1.15,2013-12-04 08:20:00,
2013-12-04 00:30:00,47.7,41.8,29.91,NW,320,19.0,19.0,80,0.00,,,0.00,Wunderground v.1.15,2013-12-04 08:30:00,
2013-12-04 00:35:00,47.5,42.0,29.91,NW,321,18.0,22.0,81,0.00,,,0.00,Wunderground v.1.15,2013-12-04 08:35:00,
2013-12-04 00:40:00,47.6,41.7,29.90,NW,322,17.0,42.0,80,0.00,,,0.00,Wunderground v.1.15,2013-12-04 08:40:00,
2013-12-04 00:50:00,48.1,41.2,29.90,North,349,19.0,39.0,77,0.00,,,0.00,Wunderground v.1.15,2013-12-04 08:50:00,
2013-12-04 00:55:00,48.1,40.9,29.90,NW,314,18.0,39.0,76,0.00,,,0.00,Wunderground v.1.15,2013-12-04 08:55:00,
2013-12-04 01:00:00,48.6,40.7,29.90,NW,322,19.0,19.0,74,0.00,,,0.00,Wunderground v.1.15,2013-12-04 09:00:00,
2013-12-04 01:05:00,47.8,41.3,29.90,NW,324,18.0,39.0,78,0.00,,,0.00,Wunderground v.1.15,2013-12-04 09:05:00,
2013-12-04 01:15:00,47.0,42.1,29.90,NNW,336,16.0,39.0,83,0.00,,,0.00,Wunderground v.1.15,2013-12-04 09:15:00,
2013-12-04 01:20:00,46.7,42.4,29.91,NW,316,15.0,35.0,85,0.00,,,0.00,Wunderground v.1.15,2013-12-04 09:20:00,
2013-12-04 01:30:00,46.6,42.6,29.91,NNW,333,18.0,35.0,86,0.00,,,0.00,Wunderground v.1.15,2013-12-04 09:30:00,
2013-12-04 01:35:00,46.4,42.7,29.92,NNW,346,18.0,35.0,87,0.00,,,0.00,Wunderground v.1.15,2013-12-04 09:35:00,
2013-12-04 01:40:00,46.3,42.6,29.92,NNW,329,18.0,35.0,87,0.00,,,0.01,Wunderground v.1.15,2013-12-04 09:40:00,
2013-12-04 01:50:00,46.1,42.4,29.92,NW,318,16.0,16.0,87,0.00,,,0.01,Wunderground v.1.15,2013-12-04 09:50:00,
2013-12-04 02:00:00,46.0,42.6,29.93,NW,306,14.0,33.0,88,0.00,,,0.01,Wunderground v.1.15,2013-12-04 10:00:00,
2013-12-04 02:05:00,46.0,42.0,29.92,NNW,336,15.0,33.0,86,0.00,,,0.01,Wunderground v.1.15,2013-12-04 10:05:00,
2013-12-04 02:15:00,46.1,41.5,29.92,NW,304,17.0,33.0,84,0.00,,,0.01,Wunderground v.1.15,2013-12-04 10:15:00,
2013-12-04 02:20:00,46.0,41.1,29.92,NNW,334,17.0,17.0,83,0.00,,,0.01,Wunderground v.1.15,2013-12-04 10:20:00,
2013-12-04 02:25:00,45.8,41.2,29.93,West,281,17.0,28.0,84,0.00,,,0.01,Wunderground v.1.15,2013-12-04 10:25:00,
2013-12-04 02:35:00,45.6,39.8,29.92,WNW,294,17.0,28.0,80,0.00,,,0.01,Wunderground v.1.15,2013-12-04 10:35:00,
2013-12-04 02:40:00,45.2,39.7,29.93,NW,308,18.0,18.0,81,0.00,,,0.01,Wunderground v.1.15,2013-12-04 10:40:00,
2013-12-04 02:45:00,45.3,39.5,29.92,West,272,17.0,28.0,80,0.00,,,0.01,Wunderground v.1.15,2013-12-04 10:45:00,
2013-12-04 02:50:00,44.9,39.1,29.93,NNW,333,17.0,33.0,80,0.00,,,0.01,Wunderground v.1.15,2013-12-04 10:50:00,
2013-12-04 03:00:00,44.5,37.4,29.92,NW,320,19.0,33.0,76,0.00,,,0.01,Wunderground v.1.15,2013-12-04 11:00:00,
2013-12-04 03:05:00,44.4,37.3,29.93,NW,325,19.0,33.0,76,0.00,,,0.01,Wunderground v.1.15,2013-12-04 11:05:00,
2013-12-04 03:15:00,44.5,36.0,29.94,NW,308,14.0,18.0,72,0.00,,,0.01,Wunderground v.1.15,2013-12-04 11:15:00,
2013-12-04 03:20:00,44.4,35.6,29.94,NNW,329,11.0,11.0,71,0.00,,,0.01,Wunderground v.1.15,2013-12-04 11:20:00,
2013-12-04 03:25:00,44.2,35.4,29.95,North,5,9.0,33.0,71,0.00,,,0.01,Wunderground v.1.15,2013-12-04 11:25:00,
2013-12-04 03:35:00,39.8,28.6,29.97,South,172,5.0,33.0,64,0.00,,,0.01,Wunderground v.1.15,2013-12-04 11:35:00,
2013-12-04 03:45:00,38.0,28.7,29.98,South,181,2.0,33.0,69,0.00,,,0.01,Wunderground v.1.15,2013-12-04 11:45:00,
2013-12-04 03:50:00,38.0,29.1,29.99,SE,132,0.0,27.0,70,0.00,,,0.01,Wunderground v.1.15,2013-12-04 11:50:00,
2013-12-04 04:00:00,37.7,28.4,29.98,South,190,1.0,1.0,69,0.00,,,0.01,Wunderground v.1.15,2013-12-04 12:00:00,
2013-12-04 04:05:00,37.5,28.2,29.99,South,183,2.0,2.0,69,0.00,,,0.01,Wunderground v.1.15,2013-12-04 12:05:00,
2013-12-04 04:15:00,37.1,28.6,30.00,SW,231,1.0,27.0,71,0.00,,,0.01,Wunderground v.1.15,2013-12-04 12:15:00,
2013-12-04 04:20:00,36.8,27.9,30.00,SSW,202,2.0,10.0,70,0.00,,,0.01,Wunderground v.1.15,2013-12-04 12:20:00,
2013-12-04 04:25:00,36.5,27.6,30.00,SSW,206,3.0,10.0,70,0.00,,,0.01,Wunderground v.1.15,2013-12-04 12:25:00,
2013-12-04 04:35:00,36.5,27.6,30.00,South,169,5.0,5.0,70,0.00,,,0.01,Wunderground v.1.15,2013-12-04 12:35:00,
2013-12-04 04:40:00,36.3,27.4,30.00,SSE,165,6.0,6.0,70,0.00,,,0.01,Wunderground v.1.15,2013-12-04 12:40:00,
2013-12-04 04:45:00,36.1,26.9,30.01,South,186,7.0,7.0,69,0.00,,,0.01,Wunderground v.1.15,2013-12-04 12:45:00,
2013-12-04 04:50:00,35.9,26.7,30.01,SE,146,7.0,7.0,69,0.00,,,0.01,Wunderground v.1.15,2013-12-04 12:50:00,
2013-12-04 05:00:00,35.5,26.0,30.02,SSE,152,3.0,15.0,68,0.00,,,0.01,Wunderground v.1.15,2013-12-04 13:00:00,
2013-12-04 05:05:00,35.2,25.7,30.03,SSE,153,2.0,15.0,68,0.00,,,0.01,Wunderground v.1.15,2013-12-04 13:05:00,
2013-12-04 05:15:00,35.0,25.1,30.03,SSE,153,0.0,15.0,67,0.00,,,0.01,Wunderground v.1.15,2013-12-04 13:15:00,
2013-12-04 05:20:00,35.0,24.8,30.03,SSE,153,0.0,14.0,66,0.00,,,0.01,Wunderground v.1.15,2013-12-04 13:20:00,
2013-12-04 05:30:00,34.8,25.0,30.04,SSE,153,0.0,14.0,67,0.00,,,0.01,Wunderground v.1.15,2013-12-04 13:30:00,
2013-12-04 05:35:00,34.5,24.7,30.04,SSE,154,0.0,14.0,67,0.00,,,0.01,Wunderground v.1.15,2013-12-04 13:35:00,
2013-12-04 05:45:00,34.0,24.5,30.05,SSE,154,0.0,14.0,68,0.00,,,0.01,Wunderground v.1.15,2013-12-04 13:45:00,
2013-12-04 05:50:00,34.1,24.3,30.05,SSE,154,0.0,0.0,67,0.00,,,0.01,Wunderground v.1.15,2013-12-04 13:50:00,
2013-12-04 06:00:00,33.9,23.4,30.07,SSW,209,0.0,1.0,65,0.00,,,0.01,Wunderground v.1.15,2013-12-04 14:00:00,
2013-12-04 06:05:00,34.3,23.0,30.07,South,183,1.0,3.0,63,0.00,,,0.01,Wunderground v.1.15,2013-12-04 14:05:00,
2013-12-04 06:15:00,34.6,22.1,30.08,South,173,1.0,1.0,60,0.00,,,0.01,Wunderground v.1.15,2013-12-04 14:15:00,
2013-12-04 06:20:00,34.5,21.6,30.09,South,173,0.0,7.0,59,0.00,,,0.01,Wunderground v.1.15,2013-12-04 14:20:00,
2013-12-04 06:25:00,34.1,21.3,30.10,South,173,0.0,7.0,59,0.00,,,0.01,Wunderground v.1.15,2013-12-04 14:25:00,
2013-12-04 06:30:00,33.8,21.0,30.11,SSW,200,1.0,7.0,59,0.00,,,0.01,Wunderground v.1.15,2013-12-04 14:30:00,
2013-12-04 06:40:00,33.4,21.4,30.11,South,190,1.0,1.0,61,0.00,,,0.01,Wunderground v.1.15,2013-12-04 14:40:00,
2013-12-04 06:45:00,33.3,21.3,30.11,South,190,0.0,7.0,61,0.00,,,0.01,Wunderground v.1.15,2013-12-04 14:45:00,
2013-12-04 06:50:00,33.2,21.6,30.12,South,190,0.0,8.0,62,0.00,,,0.01,Wunderground v.1.15,2013-12-04 14:50:00,
2013-12-04 07:00:00,32.8,21.6,30.13,South,181,0.0,8.0,63,0.00,,,0.01,Wunderground v.1.15,2013-12-04 15:00:00,
2013-12-04 07:05:00,33.1,21.5,30.13,South,179,1.0,8.0,62,0.00,,,0.01,Wunderground v.1.15,2013-12-04 15:05:00,
2013-12-04 07:15:00,33.3,21.7,30.14,SSW,205,1.0,4.0,62,0.00,,,0.01,Wunderground v.1.15,2013-12-04 15:15:00,
2013-12-04 07:20:00,33.7,22.1,30.15,SW,214,2.0,2.0,62,0.00,,,0.01,Wunderground v.1.15,2013-12-04 15:20:00,
2013-12-04 07:25:00,34.0,22.0,30.15,South,191,2.0,6.0,61,0.00,,,0.01,Wunderground v.1.15,2013-12-04 15:25:00,
2013-12-04 07:30:00,34.5,22.4,30.16,SSW,200,1.0,6.0,61,0.00,,,0.01,Wunderground v.1.15,2013-12-04 15:30:00,
2013-12-04 07:50:00,35.4,21.2,30.17,SSW,198,2.0,2.0,56,0.00,,,0.01,Wunderground v.1.15,2013-12-04 15:50:00,
2013-12-04 07:55:00,35.6,20.1,30.17,South,177,2.0,8.0,53,0.00,,,0.01,Wunderground v.1.15,2013-12-04 15:55:00,
2013-12-04 08:00:00,35.8,19.0,30.17,South,177,3.0,8.0,50,0.00,,,0.01,Wunderground v.1.15,2013-12-04 16:00:00,
2013-12-04 08:10:00,36.4,17.1,30.18,SSE,152,6.0,8.0,45,0.00,,,0.01,Wunderground v.1.15,2013-12-04 16:10:00,
2013-12-04 08:15:00,36.5,17.1,30.18,SE,144,8.0,8.0,45,0.00,,,0.01,Wunderground v.1.15,2013-12-04 16:15:00,
2013-12-04 08:20:00,36.6,16.7,30.19,SE,140,7.0,7.0,44,0.00,,,0.01,Wunderground v.1.15,2013-12-04 16:20:00,
2013-12-04 08:30:00,37.6,14.2,30.20,SSE,160,9.0,10.0,38,0.00,,,0.01,Wunderground v.1.15,2013-12-04 16:30:00,
2013-12-04 08:35:00,37.3,17.4,30.21,South,174,7.0,10.0,44,0.00,,,0.01,Wunderground v.1.15,2013-12-04 16:35:00,
2013-12-04 08:40:00,37.0,18.1,30.22,South,187,5.0,10.0,46,0.00,,,0.01,Wunderground v.1.15,2013-12-04 16:40:00,
2013-12-04 08:50:00,36.8,17.9,30.22,South,175,4.0,4.0,46,0.00,,,0.01,Wunderground v.1.15,2013-12-04 16:50:00,
2013-12-04 09:00:00,37.2,17.8,30.23,South,171,4.0,15.0,45,0.00,,,0.01,Wunderground v.1.15,2013-12-04 17:00:00,
2013-12-04 09:05:00,37.5,16.5,30.23,SSE,152,6.0,15.0,42,0.00,,,0.01,Wunderground v.1.15,2013-12-04 17:05:00,
2013-12-04 09:15:00,37.9,15.1,30.23,SE,146,10.0,10.0,39,0.00,,,0.01,Wunderground v.1.15,2013-12-04 17:15:00,
2013-12-04 09:20:00,37.8,15.0,30.24,SSE,156,10.0,15.0,39,0.00,,,0.01,Wunderground v.1.15,2013-12-04 17:20:00,
2013-12-04 09:30:00,37.9,15.1,30.24,SE,133,10.0,10.0,39,0.00,,,0.01,Wunderground v.1.15,2013-12-04 17:30:00,
2013-12-04 09:35:00,38.1,15.3,30.24,SE,125,9.0,15.0,39,0.00,,,0.01,Wunderground v.1.15,2013-12-04 17:35:00,
2013-12-04 09:40:00,38.0,15.8,30.24,SE,138,8.0,15.0,40,0.00,,,0.01,Wunderground v.1.15,2013-12-04 17:40:00,
2013-12-04 09:45:00,37.9,15.7,30.24,SE,142,9.0,15.0,40,0.00,,,0.01,Wunderground v.1.15,2013-12-04 17:45:00,
2013-12-04 09:50:00,38.1,15.9,30.24,SSE,148,9.0,9.0,40,0.00,,,0.01,Wunderground v.1.15,2013-12-04 17:50:00,
2013-12-04 10:00:00,37.9,16.3,30.24,SSE,157,10.0,10.0,41,0.00,,,0.01,Wunderground v.1.15,2013-12-04 18:00:00,
2013-12-04 10:10:00,38.3,16.6,30.24,SSE,149,7.0,22.0,41,0.00,,,0.01,Wunderground v.1.15,2013-12-04 18:10:00,
2013-12-04 10:15:00,38.2,16.0,30.24,SE,130,8.0,22.0,40,0.00,,,0.01,Wunderground v.1.15,2013-12-04 18:15:00,
2013-12-04 10:20:00,38.0,16.9,30.24,SE,143,9.0,9.0,42,0.00,,,0.01,Wunderground v.1.15,2013-12-04 18:20:00,
2013-12-04 10:30:00,38.2,17.1,30.23,SE,139,7.0,18.0,42,0.00,,,0.01,Wunderground v.1.15,2013-12-04 18:30:00,
2013-12-04 10:35:00,38.6,16.9,30.24,SE,129,6.0,18.0,41,0.00,,,0.01,Wunderground v.1.15,2013-12-04 18:35:00,
2013-12-04 10:45:00,38.4,16.7,30.24,SSE,163,8.0,18.0,41,0.00,,,0.01,Wunderground v.1.15,2013-12-04 18:45:00,
2013-12-04 10:50:00,38.5,17.4,30.24,SE,133,7.0,7.0,42,0.00,,,0.01,Wunderground v.1.15,2013-12-04 18:50:00,
2013-12-04 10:55:00,38.9,17.2,30.24,SE,125,7.0,16.0,41,0.00,,,0.01,Wunderground v.1.15,2013-12-04 18:55:00,
2013-12-04 11:05:00,38.8,17.1,30.24,SE,146,6.0,16.0,41,0.00,,,0.01,Wunderground v.1.15,2013-12-04 19:05:00,
2013-12-04 11:10:00,39.2,17.4,30.24,East,94,7.0,16.0,41,0.00,,,0.01,Wunderground v.1.15,2013-12-04 19:10:00,
2013-12-04 11:15:00,39.2,17.4,30.24,ESE,114,7.0,16.0,41,0.00,,,0.01,Wunderground v.1.15,2013-12-04 19:15:00,
2013-12-04 11:20:00,39.4,17.6,30.24,ESE,108,6.0,17.0,41,0.00,,,0.01,Wunderground v.1.15,2013-12-04 19:20:00,
2013-12-04 11:30:00,39.5,18.3,30.24,SSE,167,5.0,5.0,42,0.00,,,0.01,Wunderground v.1.15,2013-12-04 19:30:00,
2013-12-04 11:35:00,39.9,18.6,30.24,East,84,3.0,17.0,42,0.00,,,0.01,Wunderground v.1.15,2013-12-04 19:35:00,
2013-12-04 11:45:00,39.9,18.6,30.24,South,190,4.0,17.0,42,0.00,,,0.01,Wunderground v.1.15,2013-12-04 19:45:00,
2013-12-04 11:50:00,40.4,18.5,30.23,ESE,104,3.0,16.0,41,0.00,,,0.01,Wunderground v.1.15,2013-12-04 19:50:00,
2013-12-04 12:00:00,39.5,18.3,30.24,SE,144,5.0,5.0,42,0.00,,,0.01,Wunderground v.1.15,2013-12-04 20:00:00,
2013-12-04 12:15:00,40.0,18.7,30.24,ESE,116,5.0,16.0,42,0.00,,,0.01,Wunderground v.1.15,2013-12-04 20:15:00,
2013-12-04 12:20:00,40.2,18.3,30.24,SE,135,6.0,12.0,41,0.00,,,0.01,Wunderground v.1.15,2013-12-04 20:20:00,
2013-12-04 12:30:00,40.1,18.3,30.23,SSE,158,5.0,5.0,41,0.00,,,0.01,Wunderground v.1.15,2013-12-04 20:30:00,
2013-12-04 12:35:00,40.2,17.8,30.23,ESE,111,3.0,12.0,40,0.00,,,0.01,Wunderground v.1.15,2013-12-04 20:35:00,
2013-12-04 12:45:00,40.7,17.6,30.23,SE,143,3.0,12.0,39,0.00,,,0.01,Wunderground v.1.15,2013-12-04 20:45:00,
2013-12-04 12:50:00,40.6,16.9,30.23,SE,127,4.0,4.0,38,0.00,,,0.01,Wunderground v.1.15,2013-12-04 20:50:00,
2013-12-04 13:00:00,40.4,16.8,30.23,SSE,155,3.0,12.0,38,0.00,,,0.01,Wunderground v.1.15,2013-12-04 21:00:00,
2013-12-04 13:05:00,40.5,16.9,30.23,SSE,167,4.0,12.0,38,0.00,,,0.01,Wunderground v.1.15,2013-12-04 21:05:00,
2013-12-04 13:15:00,40.9,16.6,30.23,SE,145,4.0,6.0,37,0.00,,,0.01,Wunderground v.1.15,2013-12-04 21:15:00,
2013-12-04 13:20:00,40.3,16.1,30.23,SE,138,4.0,13.0,37,0.00,,,0.01,Wunderground v.1.15,2013-12-04 21:20:00,
2013-12-04 13:25:00,40.4,16.8,30.23,South,189,3.0,13.0,38,0.00,,,0.01,Wunderground v.1.15,2013-12-04 21:25:00,
2013-12-04 13:30:00,40.7,16.4,30.23,South,181,2.0,2.0,37,0.00,,,0.01,Wunderground v.1.15,2013-12-04 21:30:00,
2013-12-04 13:40:00,40.0,15.8,30.23,SE,126,4.0,4.0,37,0.00,,,0.01,Wunderground v.1.15,2013-12-04 21:40:00,
2013-12-04 13:45:00,40.2,16.0,30.23,ESE,110,5.0,5.0,37,0.00,,,0.01,Wunderground v.1.15,2013-12-04 21:45:00,
2013-12-04 13:50:00,40.3,16.1,30.24,SE,132,3.0,13.0,37,0.00,,,0.01,Wunderground v.1.15,2013-12-04 21:50:00,
2013-12-04 14:00:00,40.2,16.0,30.24,SE,133,3.0,3.0,37,0.00,,,0.01,Wunderground v.1.15,2013-12-04 22:00:00,
2013-12-04 14:05:00,40.2,16.0,30.24,SE,142,3.0,13.0,37,0.00,,,0.01,Wunderground v.1.15,2013-12-04 22:05:00,
2013-12-04 14:15:00,40.2,16.0,30.24,SE,138,4.0,13.0,37,0.00,,,0.01,Wunderground v.1.15,2013-12-04 22:15:00,
2013-12-04 14:20:00,40.2,16.0,30.25,SSE,161,3.0,3.0,37,0.00,,,0.01,Wunderground v.1.15,2013-12-04 22:20:00,
2013-12-04 14:30:00,40.4,15.5,30.24,SSW,204,1.0,10.0,36,0.00,,,0.01,Wunderground v.1.15,2013-12-04 22:30:00,
2013-12-04 14:35:00,40.2,15.3,30.24,SSW,196,2.0,10.0,36,0.00,,,0.01,Wunderground v.1.15,2013-12-04 22:35:00,
2013-12-04 14:45:00,40.3,14.8,30.24,SSE,167,2.0,3.0,35,0.00,,,0.01,Wunderground v.1.15,2013-12-04 22:45:00,
2013-12-04 14:50:00,40.0,15.2,30.24,SSE,167,1.0,1.0,36,0.00,,,0.01,Wunderground v.1.15,2013-12-04 22:50:00,
2013-12-04 15:00:00,39.7,14.2,30.25,SSE,157,0.0,9.0,35,0.00,,,0.01,Wunderground v.1.15,2013-12-04 23:00:00,
2013-12-04 15:05:00,39.5,14.7,30.25,SSE,167,1.0,9.0,36,0.00,,,0.01,Wunderground v.1.15,2013-12-04 23:05:00,
2013-12-04 15:10:00,39.4,14.6,30.25,SSE,167,1.0,1.0,36,0.00,,,0.01,Wunderground v.1.15,2013-12-04 23:10:00,
2013-12-04 15:15:00,39.4,14.6,30.25,South,180,1.0,2.0,36,0.00,,,0.01,Wunderground v.1.15,2013-12-04 23:15:00,
2013-12-04 15:25:00,39.6,14.8,30.25,South,180,0.0,7.0,36,0.00,,,0.01,Wunderground v.1.15,2013-12-04 23:25:00,
2013-12-04 15:30:00,39.7,14.9,30.25,South,180,1.0,7.0,36,0.00,,,0.01,Wunderground v.1.15,2013-12-04 23:30:00,
2013-12-04 15:35:00,39.8,14.3,30.25,South,171,2.0,7.0,35,0.00,,,0.01,Wunderground v.1.15,2013-12-04 23:35:00,
2013-12-04 15:45:00,40.1,14.6,30.25,SSE,165,1.0,7.0,35,0.00,,,0.01,Wunderground v.1.15,2013-12-04 23:45:00,
2013-12-04 15:50:00,40.0,14.5,30.25,SSE,161,1.0,5.0,35,0.00,,,0.01,Wunderground v.1.15,2013-12-04 23:50:00,
2013-12-04 15:55:00,39.9,14.4,30.25,South,171,2.0,5.0,35,0.00,,,0.01,Wunderground v.1.15,2013-12-04 23:55:00,
2013-12-04 16:05:00,39.7,14.2,30.25,SSE,162,1.0,5.0,35,0.00,,,0.01,Wunderground v.1.15,2013-12-05 00:05:00,
2013-12-04 16:10:00,39.6,14.2,30.25,SSE,148,0.0,5.0,35,0.00,,,0.01,Wunderground v.1.15,2013-12-05 00:10:00,
2013-12-04 16:20:00,39.1,13.7,30.25,SE,135,1.0,1.0,35,0.00,,,0.01,Wunderground v.1.15,2013-12-05 00:20:00,
2013-12-04 16:30:00,38.7,14.0,30.25,SE,135,0.0,6.0,36,0.00,,,0.01,Wunderground v.1.15,2013-12-05 00:30:00,
2013-12-04 16:35:00,38.5,13.8,30.25,SE,135,0.0,6.0,36,0.00,,,0.01,Wunderground v.1.15,2013-12-05 00:35:00,
2013-12-04 16:45:00,38.1,13.5,30.26,SE,135,0.0,6.0,36,0.00,,,0.01,Wunderground v.1.15,2013-12-05 00:45:00,
2013-12-04 16:50:00,37.9,13.3,30.26,SE,135,0.0,4.0,36,0.00,,,0.01,Wunderground v.1.15,2013-12-05 00:50:00,
2013-12-04 17:00:00,37.2,12.7,30.26,SE,135,0.0,4.0,36,0.00,,,0.01,Wunderground v.1.15,2013-12-05 01:00:00,
2013-12-04 17:10:00,36.7,12.2,30.26,SE,135,0.0,4.0,36,0.00,,,0.01,Wunderground v.1.15,2013-12-05 01:10:00,
2013-12-04 17:15:00,36.7,11.6,30.26,SE,135,0.0,4.0,35,0.00,,,0.01,Wunderground v.1.15,2013-12-05 01:15:00,
2013-12-04 17:20:00,36.6,11.5,30.26,SE,135,0.0,0.0,35,0.00,,,0.01,Wunderground v.1.15,2013-12-05 01:20:00,
2013-12-04 17:30:00,36.4,11.3,30.27,SE,135,0.0,0.0,35,0.00,,,0.01,Wunderground v.1.15,2013-12-05 01:30:00,
2013-12-04 17:35:00,36.3,11.2,30.27,SE,135,0.0,0.0,35,0.00,,,0.01,Wunderground v.1.15,2013-12-05 01:35:00,
2013-12-04 17:40:00,36.2,11.1,30.27,SE,135,0.0,0.0,35,0.00,,,0.01,Wunderground v.1.15,2013-12-05 01:40:00,
2013-12-04 17:50:00,36.0,11.0,30.27,SE,135,0.0,2.0,35,0.00,,,0.01,Wunderground v.1.15,2013-12-05 01:50:00,
2013-12-04 17:55:00,35.9,10.9,30.28,SE,135,0.0,2.0,35,0.00,,,0.01,Wunderground v.1.15,2013-12-05 01:55:00,
2013-12-04 18:05:00,35.7,10.7,30.28,SE,135,0.0,2.0,35,0.00,,,0.01,Wunderground v.1.15,2013-12-05 02:05:00,
2013-12-04 18:15:00,35.5,10.5,30.28,SE,135,0.0,2.0,35,0.00,,,0.01,Wunderground v.1.15,2013-12-05 02:15:00,
2013-12-04 18:20:00,35.4,10.4,30.28,SE,135,0.0,2.0,35,0.00,,,0.01,Wunderground v.1.15,2013-12-05 02:20:00,
2013-12-04 18:30:00,35.5,10.5,30.28,SE,135,0.0,2.0,35,0.00,,,0.01,Wunderground v.1.15,2013-12-05 02:30:00,
2013-12-04 18:35:00,35.5,10.5,30.29,SE,135,0.0,2.0,35,0.00,,,0.01,Wunderground v.1.15,2013-12-05 02:35:00,
2013-12-04 18:45:00,35.5,9.9,30.29,SE,135,0.0,2.0,34,0.00,,,0.01,Wunderground v.1.15,2013-12-05 02:45:00,
2013-12-04 18:50:00,35.6,9.9,30.29,SE,135,0.0,0.0,34,0.00,,,0.01,Wunderground v.1.15,2013-12-05 02:50:00,
2013-12-04 18:55:00,35.6,8.6,30.29,SE,135,0.0,0.0,32,0.00,,,0.01,Wunderground v.1.15,2013-12-05 02:55:00,
2013-12-04 19:00:00,35.6,7.9,30.29,SE,135,0.0,0.0,31,0.00,,,0.01,Wunderground v.1.15,2013-12-05 03:00:00,
2013-12-04 19:10:00,35.9,7.4,30.30,SE,135,0.0,0.0,30,0.00,,,0.01,Wunderground v.1.15,2013-12-05 03:10:00,
2013-12-04 19:15:00,36.0,7.5,30.30,SE,135,0.0,0.0,30,0.00,,,0.01,Wunderground v.1.15,2013-12-05 03:15:00,
2013-12-04 19:20:00,36.1,6.9,30.30,SSE,149,0.0,2.0,29,0.00,,,0.01,Wunderground v.1.15,2013-12-05 03:20:00,
2013-12-04 19:30:00,36.4,7.9,30.29,SSE,149,0.0,2.0,30,0.00,,,0.01,Wunderground v.1.15,2013-12-05 03:30:00,
2013-12-04 19:35:00,36.5,7.2,30.29,SSE,149,0.0,2.0,29,0.00,,,0.01,Wunderground v.1.15,2013-12-05 03:35:00,
2013-12-04 19:45:00,36.5,8.0,30.29,SSE,149,0.0,2.0,30,0.00,,,0.01,Wunderground v.1.15,2013-12-05 03:45:00,
2013-12-04 19:50:00,36.6,8.0,30.29,SSE,149,0.0,3.0,30,0.00,,,0.01,Wunderground v.1.15,2013-12-05 03:50:00,
2013-12-04 20:00:00,36.7,8.9,30.30,SSE,149,0.0,3.0,31,0.00,,,0.01,Wunderground v.1.15,2013-12-05 04:00:00,
2013-12-04 20:10:00,36.6,9.5,30.30,SSE,149,0.0,3.0,32,0.00,,,0.01,Wunderground v.1.15,2013-12-05 04:10:00,
2013-12-04 20:20:00,36.7,8.9,30.30,SSE,149,0.0,0.0,31,0.00,,,0.01,Wunderground v.1.15,2013-12-05 04:20:00,
2013-12-04 20:25:00,36.6,8.8,30.30,SSE,149,0.0,0.0,31,0.00,,,0.01,Wunderground v.1.15,2013-12-05 04:25:00,
2013-12-04 20:30:00,36.6,9.5,30.30,SSE,149,0.0,0.0,32,0.00,,,0.01,Wunderground v.1.15,2013-12-05 04:30:00,
2013-12-04 20:35:00,36.5,10.1,30.30,SSE,149,0.0,0.0,33,0.00,,,0.01,Wunderground v.1.15,2013-12-05 04:35:00,
2013-12-04 20:40:00,36.5,10.1,30.31,SSE,149,0.0,0.0,33,0.00,,,0.01,Wunderground v.1.15,2013-12-05 04:40:00,
2013-12-04 20:50:00,36.2,9.1,30.31,SSE,149,0.0,0.0,32,0.00,,,0.01,Wunderground v.1.15,2013-12-05 04:50:00,
2013-12-04 21:00:00,36.1,9.0,30.30,SSE,149,0.0,0.0,32,0.00,,,0.01,Wunderground v.1.15,2013-12-05 05:00:00,
2013-12-04 21:05:00,36.0,8.9,30.30,SSE,149,0.0,0.0,32,0.00,,,0.01,Wunderground v.1.15,2013-12-05 05:05:00,
2013-12-04 21:10:00,36.0,8.2,30.31,SSE,149,0.0,0.0,31,0.00,,,0.01,Wunderground v.1.15,2013-12-05 05:10:00,
2013-12-04 21:15:00,36.0,8.9,30.31,SSE,149,0.0,0.0,32,0.00,,,0.01,Wunderground v.1.15,2013-12-05 05:15:00,
2013-12-04 21:20:00,36.0,8.2,30.31,SSE,149,0.0,0.0,31,0.00,,,0.01,Wunderground v.1.15,2013-12-05 05:20:00,
2013-12-04 21:25:00,36.1,8.3,30.31,SSE,149,0.0,0.0,31,0.00,,,0.01,Wunderground v.1.15,2013-12-05 05:25:00,
2013-12-04 21:30:00,36.1,8.3,30.31,SSE,149,0.0,0.0,31,0.00,,,0.01,Wunderground v.1.15,2013-12-05 05:30:00,
2013-12-04 21:35:00,36.0,8.9,30.31,SSE,149,0.0,0.0,32,0.00,,,0.01,Wunderground v.1.15,2013-12-05 05:35:00,
2013-12-04 21:40:00,35.9,9.5,30.31,SSE,149,0.0,0.0,33,0.00,,,0.01,Wunderground v.1.15,2013-12-05 05:40:00,
2013-12-04 21:45:00,35.8,8.8,30.31,SSE,149,0.0,0.0,32,0.00,,,0.01,Wunderground v.1.15,2013-12-05 05:45:00,
2013-12-04 21:50:00,35.7,8.7,30.31,SSE,149,0.0,0.0,32,0.00,,,0.01,Wunderground v.1.15,2013-12-05 05:50:00,
2013-12-04 21:55:00,35.6,7.9,30.31,SSE,149,0.0,0.0,31,0.00,,,0.01,Wunderground v.1.15,2013-12-05 05:55:00,
2013-12-04 22:05:00,35.6,7.2,30.31,SSE,149,0.0,0.0,30,0.00,,,0.01,Wunderground v.1.15,2013-12-05 06:05:00,
2013-12-04 22:10:00,35.6,7.2,30.31,SSE,149,0.0,0.0,30,0.00,,,0.01,Wunderground v.1.15,2013-12-05 06:10:00,
2013-12-04 22:15:00,35.6,6.4,30.31,SSE,149,0.0,0.0,29,0.00,,,0.01,Wunderground v.1.15,2013-12-05 06:15:00,
2013-12-04 22:25:00,35.3,6.9,30.31,SSE,149,1.0,2.0,30,0.00,,,0.01,Wunderground v.1.15,2013-12-05 06:25:00,
2013-12-04 22:35:00,35.1,6.7,30.31,SSE,158,1.0,1.0,30,0.00,,,0.01,Wunderground v.1.15,2013-12-05 06:35:00,
2013-12-04 22:45:00,34.4,8.2,30.31,SSE,158,1.0,2.0,33,0.00,,,0.01,Wunderground v.1.15,2013-12-05 06:45:00,
2013-12-04 22:50:00,34.1,8.0,30.31,SSE,158,1.0,1.0,33,0.00,,,0.01,Wunderground v.1.15,2013-12-05 06:50:00,
2013-12-04 22:55:00,33.8,8.4,30.31,SSE,158,0.0,4.0,34,0.00,,,0.01,Wunderground v.1.15,2013-12-05 06:55:00,
2013-12-04 23:05:00,33.5,8.1,30.31,SSE,158,0.0,4.0,34,0.00,,,0.01,Wunderground v.1.15,2013-12-05 07:05:00,
2013-12-04 23:10:00,33.4,8.6,30.31,SSE,158,0.0,4.0,35,0.00,,,0.01,Wunderground v.1.15,2013-12-05 07:10:00,
2013-12-04 23:15:00,33.4,8.6,30.31,SSE,158,0.0,4.0,35,0.00,,,0.01,Wunderground v.1.15,2013-12-05 07:15:00,
2013-12-04 23:20:00,33.3,8.6,30.31,SSE,158,0.0,3.0,35,0.00,,,0.01,Wunderground v.1.15,2013-12-05 07:20:00,
2013-12-04 23:30:00,32.9,8.8,30.31,SSE,158,0.0,3.0,36,0.00,,,0.01,Wunderground v.1.15,2013-12-05 07:30:00,
2013-12-04 23:35:00,32.8,9.3,30.31,SSE,158,0.0,3.0,37,0.00,,,0.01,Wunderground v.1.15,2013-12-05 07:35:00,
2013-12-04 23:45:00,32.4,10.2,30.31,SSE,158,0.0,3.0,39,0.00,,,0.01,Wunderground v.1.15,2013-12-05 07:45:00,
2013-12-04 23:50:00,32.2,10.5,30.31,SSE,158,0.0,0.0,40,0.00,,,0.01,Wunderground v.1.15,2013-12-05 07:50:00,